PWSweather.com
Personal Weather Stations
Station Observations
UISISLE1
Newport, Isle ofWight, ISLE OF WIGHT PO30 2JX

NewportIsle ofWight, ISLE OF WIGHT PO30 2JX

Lat: 50.72, Lon: -1.27

Elevation: 45

Station Type: Davis Vantage Pro Plus

http://www.isleofwightweather.co.uk

High Low Average
Temperature 74.0°F23.3°C 61.2°F16.2°C 66.9°F19.4°C
Dew Point 67.1°F19.5°C 59.1°F15.1°C 63.4°F17.4°C
Winds 7.5 mph 12.1 kmh Calm Calm 2.0 mph WSW3.2 kmh WSW
Wind Gusts 13.0 mph20.9 kmh -- 5.0 mph8.0 kmh
Humidity 95% 79% 89%
Pressure 30.17 in1021.7 mb 30.11 in1019.6 mb -
Precipitation 0.00 in0.0 mm - -
Hour Temp Dew Point Humidity Winds Wind Gusts Pressure Precip Precip Rate Daily Precip Total
12:00 AM 64.3°F17.9°C 61.6°F16.4°C 91% 0.9 mph NW1.4 kmh NW 5.1 mph8.2 kmh 30.13 in1020.3 mb - 0.00 in0.0 mm 0.00 in0.0 mm
12:15 AM 64.1°F17.8°C 61.4°F16.3°C 91% 0.5 mph NW0.8 kmh NW 2.1 mph3.4 kmh 30.13 in1020.3 mb - 0.00 in0.0 mm 0.00 in0.0 mm
12:30 AM 64.0°F17.8°C 61.0°F16.1°C 90% 1.1 mph WNW1.8 kmh WNW 3.1 mph5.0 kmh 30.13 in1020.3 mb - 0.00 in0.0 mm 0.00 in0.0 mm
12:45 AM 63.8°F17.7°C 60.8°F16.0°C 90% 0.1 mph NW0.2 kmh NW -- 30.13 in1020.3 mb - 0.00 in0.0 mm 0.00 in0.0 mm
01:00 AM 63.6°F17.6°C 60.6°F15.9°C 90% 0.8 mph W1.3 kmh W 2.1 mph3.4 kmh 30.13 in1020.3 mb - 0.00 in0.0 mm 0.00 in0.0 mm
01:15 AM 63.5°F17.5°C 60.6°F15.9°C 90% 0.3 mph NW0.5 kmh NW 2.1 mph3.4 kmh 30.13 in1020.3 mb - 0.00 in0.0 mm 0.00 in0.0 mm
01:30 AM 63.5°F17.5°C 60.8°F16.0°C 91% 2.3 mph NW3.7 kmh NW 5.1 mph8.2 kmh 30.13 in1020.3 mb - 0.00 in0.0 mm 0.00 in0.0 mm
01:45 AM 63.3°F17.4°C 60.6°F15.9°C 91% 0.5 mph NW0.8 kmh NW 4.1 mph6.6 kmh 30.13 in1020.3 mb - 0.00 in0.0 mm 0.00 in0.0 mm
02:00 AM 63.0°F17.2°C 60.3°F15.7°C 91% 0.5 mph NW0.8 kmh NW 1.0 mph1.6 kmh 30.13 in1020.3 mb - 0.00 in0.0 mm 0.00 in0.0 mm
02:15 AM 62.9°F17.2°C 60.2°F15.7°C 91% 0.4 mph WNW0.6 kmh WNW 2.1 mph3.4 kmh 30.13 in1020.3 mb - 0.00 in0.0 mm 0.00 in0.0 mm
02:30 AM 62.8°F17.1°C 60.1°F15.6°C 91% Calm Calm 1.0 mph1.6 kmh 30.13 in1020.3 mb - 0.00 in0.0 mm 0.00 in0.0 mm
02:45 AM 62.8°F17.1°C 60.4°F15.8°C 92% 0.2 mph WSW0.3 kmh WSW 1.0 mph1.6 kmh 30.13 in1020.3 mb - 0.00 in0.0 mm 0.00 in0.0 mm
03:00 AM 62.8°F17.1°C 60.4°F15.8°C 92% 0.2 mph SW0.3 kmh SW 3.0 mph4.8 kmh 30.13 in1020.3 mb - 0.00 in0.0 mm 0.00 in0.0 mm
03:15 AM 62.7°F17.1°C 60.3°F15.7°C 92% 2.0 mph W3.2 kmh W 4.1 mph6.6 kmh 30.13 in1020.3 mb - 0.00 in0.0 mm 0.00 in0.0 mm
03:30 AM 62.5°F16.9°C 60.1°F15.6°C 92% 0.6 mph W1.0 kmh W 1.0 mph1.6 kmh 30.13 in1020.3 mb - 0.00 in0.0 mm 0.00 in0.0 mm
03:45 AM 62.2°F16.8°C 59.8°F15.4°C 92% Calm Calm -- 30.13 in1020.3 mb - 0.00 in0.0 mm 0.00 in0.0 mm
04:00 AM 61.9°F16.6°C 59.5°F15.3°C 92% 2.5 mph W4.0 kmh W 3.1 mph5.0 kmh 30.13 in1020.3 mb - 0.00 in0.0 mm 0.00 in0.0 mm
04:15 AM 61.7°F16.5°C 59.4°F15.2°C 92% 0.5 mph W0.8 kmh W 2.1 mph3.4 kmh 30.13 in1020.3 mb - 0.00 in0.0 mm 0.00 in0.0 mm
04:30 AM 61.6°F16.4°C 59.3°F15.2°C 92% 0.6 mph SW1.0 kmh SW -- 30.13 in1020.3 mb - 0.00 in0.0 mm 0.00 in0.0 mm
04:45 AM 61.4°F16.3°C 59.1°F15.1°C 92% 0.1 mph SW0.2 kmh SW 1.0 mph1.6 kmh 30.13 in1020.3 mb - 0.00 in0.0 mm 0.00 in0.0 mm
05:00 AM 61.2°F16.2°C 59.2°F15.1°C 93% Calm Calm -- 30.13 in1020.3 mb - 0.00 in0.0 mm 0.00 in0.0 mm
05:15 AM 61.3°F16.3°C 59.3°F15.2°C 93% Calm Calm -- 30.13 in1020.3 mb - 0.00 in0.0 mm 0.00 in0.0 mm
05:30 AM 61.4°F16.3°C 59.4°F15.2°C 93% 0.3 mph SW0.5 kmh SW 2.0 mph3.2 kmh 30.13 in1020.3 mb - 0.00 in0.0 mm 0.00 in0.0 mm
05:45 AM 61.6°F16.4°C 59.6°F15.3°C 93% Calm Calm -- 30.14 in1020.7 mb - 0.00 in0.0 mm 0.00 in0.0 mm
06:00 AM 61.9°F16.6°C 60.2°F15.7°C 94% Calm Calm -- 30.14 in1020.7 mb - 0.00 in0.0 mm 0.00 in0.0 mm
06:15 AM 62.3°F16.8°C 60.6°F15.9°C 94% Calm Calm -- 30.14 in1020.7 mb - 0.00 in0.0 mm 0.00 in0.0 mm
06:30 AM 62.8°F17.1°C 61.0°F16.1°C 94% 0.6 mph WSW1.0 kmh WSW 2.1 mph3.4 kmh 30.15 in1021.0 mb - 0.00 in0.0 mm 0.00 in0.0 mm
06:45 AM 63.2°F17.3°C 61.5°F16.4°C 94% 1.2 mph W1.9 kmh W 3.0 mph4.8 kmh 30.16 in1021.3 mb - 0.00 in0.0 mm 0.00 in0.0 mm
07:00 AM 63.7°F17.6°C 62.2°F16.8°C 95% 0.7 mph W1.1 kmh W 1.0 mph1.6 kmh 30.16 in1021.3 mb - 0.00 in0.0 mm 0.00 in0.0 mm
07:15 AM 64.2°F17.9°C 62.7°F17.1°C 95% 0.1 mph SW0.2 kmh SW 2.0 mph3.2 kmh 30.16 in1021.3 mb - 0.00 in0.0 mm 0.00 in0.0 mm
07:30 AM 64.7°F18.2°C 63.2°F17.3°C 95% 1.0 mph SW1.6 kmh SW 4.0 mph6.4 kmh 30.16 in1021.3 mb - 0.00 in0.0 mm 0.00 in0.0 mm
07:45 AM 65.4°F18.6°C 63.6°F17.6°C 94% 1.5 mph WNW2.4 kmh WNW 4.1 mph6.6 kmh 30.16 in1021.3 mb - 0.00 in0.0 mm 0.00 in0.0 mm
08:00 AM 66.2°F19.0°C 64.4°F18.0°C 94% 1.7 mph WSW2.7 kmh WSW 3.0 mph4.8 kmh 30.15 in1021.0 mb - 0.00 in0.0 mm 0.00 in0.0 mm
08:15 AM 66.7°F19.3°C 64.6°F18.1°C 93% 1.4 mph W2.3 kmh W 3.1 mph5.0 kmh 30.16 in1021.3 mb - 0.00 in0.0 mm 0.00 in0.0 mm
08:30 AM 67.2°F19.6°C 64.8°F18.2°C 92% 3.5 mph SW5.6 kmh SW 5.0 mph8.0 kmh 30.16 in1021.3 mb - 0.00 in0.0 mm 0.00 in0.0 mm
08:45 AM 67.8°F19.9°C 65.0°F18.3°C 91% 3.0 mph SW4.8 kmh SW 4.0 mph6.4 kmh 30.16 in1021.3 mb - 0.00 in0.0 mm 0.00 in0.0 mm
09:00 AM 68.6°F20.3°C 65.3°F18.5°C 89% 4.1 mph SW6.6 kmh SW 6.0 mph9.7 kmh 30.16 in1021.3 mb - 0.00 in0.0 mm 0.00 in0.0 mm
09:15 AM 69.4°F20.8°C 65.7°F18.7°C 88% 2.2 mph SW3.5 kmh SW 4.0 mph6.4 kmh 30.16 in1021.3 mb - 0.00 in0.0 mm 0.00 in0.0 mm
09:30 AM 69.8°F21.0°C 65.4°F18.6°C 86% 1.0 mph WNW1.6 kmh WNW 2.1 mph3.4 kmh 30.16 in1021.3 mb - 0.00 in0.0 mm 0.00 in0.0 mm
09:45 AM 69.7°F20.9°C 65.4°F18.6°C 86% 2.7 mph WNW4.3 kmh WNW 8.0 mph12.9 kmh 30.17 in1021.7 mb - 0.00 in0.0 mm 0.00 in0.0 mm
10:00 AM 69.7°F20.9°C 65.7°F18.7°C 87% 3.0 mph W4.8 kmh W 4.1 mph6.6 kmh 30.17 in1021.7 mb - 0.00 in0.0 mm 0.00 in0.0 mm
10:15 AM 70.0°F21.1°C 66.2°F19.0°C 88% 2.6 mph SW4.2 kmh SW 6.0 mph9.7 kmh 30.16 in1021.3 mb - 0.00 in0.0 mm 0.00 in0.0 mm
10:30 AM 70.6°F21.4°C 66.2°F19.0°C 86% 4.4 mph WSW7.1 kmh WSW 9.0 mph14.5 kmh 30.16 in1021.3 mb - 0.00 in0.0 mm 0.00 in0.0 mm
10:45 AM 71.1°F21.7°C 66.0°F18.9°C 84% 4.0 mph W6.4 kmh W 7.0 mph11.3 kmh 30.16 in1021.3 mb - 0.00 in0.0 mm 0.00 in0.0 mm
11:00 AM 71.3°F21.8°C 65.9°F18.8°C 83% 2.0 mph W3.2 kmh W 7.0 mph11.3 kmh 30.16 in1021.3 mb - 0.00 in0.0 mm 0.00 in0.0 mm
11:15 AM 71.4°F21.9°C 65.6°F18.7°C 82% 2.6 mph SW4.2 kmh SW 7.0 mph11.3 kmh 30.16 in1021.3 mb - 0.00 in0.0 mm 0.00 in0.0 mm
11:30 AM 71.5°F21.9°C 65.7°F18.7°C 82% 3.1 mph SW5.0 kmh SW 7.0 mph11.3 kmh 30.16 in1021.3 mb - 0.00 in0.0 mm 0.00 in0.0 mm
11:45 AM 71.3°F21.8°C 65.5°F18.6°C 82% 2.6 mph WSW4.2 kmh WSW 6.0 mph9.7 kmh 30.16 in1021.3 mb - 0.00 in0.0 mm 0.00 in0.0 mm
12:00 PM 71.6°F22.0°C 65.8°F18.8°C 82% 3.8 mph SW6.1 kmh SW 10.0 mph16.1 kmh 30.15 in1021.0 mb - 0.00 in0.0 mm 0.00 in0.0 mm
12:15 PM 72.5°F22.5°C 66.6°F19.2°C 82% 1.7 mph SW2.7 kmh SW 6.0 mph9.7 kmh 30.15 in1021.0 mb - 0.00 in0.0 mm 0.00 in0.0 mm
12:30 PM 74.0°F23.3°C 67.1°F19.5°C 79% 5.2 mph SSW8.4 kmh SSW 10.0 mph16.1 kmh 30.15 in1021.0 mb - 0.00 in0.0 mm 0.00 in0.0 mm
02:00 PM 72.6°F22.6°C 65.7°F18.7°C 79% 6.8 mph WSW10.9 kmh WSW 9.0 mph14.5 kmh 30.15 in1021.0 mb - 0.00 in0.0 mm 0.00 in0.0 mm
02:15 PM 72.5°F22.5°C 66.3°F19.1°C 81% 2.1 mph SW3.4 kmh SW 10.0 mph16.1 kmh 30.14 in1020.7 mb - 0.00 in0.0 mm 0.00 in0.0 mm
02:30 PM 72.5°F22.5°C 66.0°F18.9°C 80% 6.2 mph W10.0 kmh W 8.0 mph12.9 kmh 30.14 in1020.7 mb - 0.00 in0.0 mm 0.00 in0.0 mm
02:45 PM 72.5°F22.5°C 66.0°F18.9°C 80% 4.7 mph SW7.6 kmh SW 9.0 mph14.5 kmh 30.14 in1020.7 mb - 0.00 in0.0 mm 0.00 in0.0 mm
03:00 PM 72.4°F22.4°C 65.5°F18.6°C 79% 4.9 mph SW7.9 kmh SW 10.0 mph16.1 kmh 30.14 in1020.7 mb - 0.00 in0.0 mm 0.00 in0.0 mm
03:15 PM 71.7°F22.1°C 64.8°F18.2°C 79% 6.6 mph W10.6 kmh W 8.0 mph12.9 kmh 30.14 in1020.7 mb - 0.00 in0.0 mm 0.00 in0.0 mm
03:30 PM 71.4°F21.9°C 64.9°F18.3°C 80% 6.3 mph WSW10.1 kmh WSW 12.0 mph19.3 kmh 30.13 in1020.3 mb - 0.00 in0.0 mm 0.00 in0.0 mm
03:45 PM 71.1°F21.7°C 65.0°F18.3°C 81% 5.8 mph SW9.3 kmh SW 11.0 mph17.7 kmh 30.13 in1020.3 mb - 0.00 in0.0 mm 0.00 in0.0 mm
04:00 PM 71.2°F21.8°C 65.1°F18.4°C 81% 1.9 mph WSW3.1 kmh WSW 7.0 mph11.3 kmh 30.13 in1020.3 mb - 0.00 in0.0 mm 0.00 in0.0 mm
04:15 PM 71.3°F21.8°C 64.8°F18.2°C 80% 4.5 mph WSW7.2 kmh WSW 13.0 mph20.9 kmh 30.13 in1020.3 mb - 0.00 in0.0 mm 0.00 in0.0 mm
04:30 PM 71.3°F21.8°C 65.2°F18.4°C 81% 4.1 mph WSW6.6 kmh WSW 8.0 mph12.9 kmh 30.13 in1020.3 mb - 0.00 in0.0 mm 0.00 in0.0 mm
04:45 PM 71.5°F21.9°C 65.4°F18.6°C 81% 7.5 mph SW12.1 kmh SW 10.0 mph16.1 kmh 30.12 in1020.0 mb - 0.00 in0.0 mm 0.00 in0.0 mm
05:00 PM 71.7°F22.1°C 65.5°F18.6°C 81% 6.4 mph SW10.3 kmh SW 11.0 mph17.7 kmh 30.12 in1020.0 mb - 0.00 in0.0 mm 0.00 in0.0 mm
05:15 PM 71.2°F21.8°C 65.4°F18.6°C 82% 5.6 mph WSW9.0 kmh WSW 9.3 mph15.0 kmh 30.12 in1020.0 mb - 0.00 in0.0 mm 0.00 in0.0 mm
05:30 PM 70.5°F21.4°C 65.1°F18.4°C 83% 6.7 mph WSW10.8 kmh WSW 10.0 mph16.1 kmh 30.12 in1020.0 mb - 0.00 in0.0 mm 0.00 in0.0 mm
05:45 PM 69.7°F20.9°C 64.7°F18.2°C 84% 6.0 mph WSW9.7 kmh WSW 8.0 mph12.9 kmh 30.12 in1020.0 mb - 0.00 in0.0 mm 0.00 in0.0 mm
06:00 PM 69.1°F20.6°C 64.4°F18.0°C 85% 3.7 mph WSW6.0 kmh WSW 7.0 mph11.3 kmh 30.11 in1019.6 mb - 0.00 in0.0 mm 0.00 in0.0 mm
06:15 PM 68.7°F20.4°C 64.3°F17.9°C 86% 1.4 mph WSW2.3 kmh WSW 5.0 mph8.0 kmh 30.11 in1019.6 mb - 0.00 in0.0 mm 0.00 in0.0 mm
06:30 PM 68.1°F20.1°C 64.1°F17.8°C 87% 5.5 mph SW8.9 kmh SW 10.0 mph16.1 kmh 30.12 in1020.0 mb - 0.00 in0.0 mm 0.00 in0.0 mm
06:45 PM 67.4°F19.7°C 63.7°F17.6°C 88% 4.4 mph SSW7.1 kmh SSW 9.0 mph14.5 kmh 30.12 in1020.0 mb - 0.00 in0.0 mm 0.00 in0.0 mm
07:00 PM 67.0°F19.4°C 63.6°F17.6°C 89% 2.3 mph SW3.7 kmh SW 4.0 mph6.4 kmh 30.12 in1020.0 mb - 0.00 in0.0 mm 0.00 in0.0 mm
07:15 PM 66.7°F19.3°C 63.7°F17.6°C 90% 0.6 mph SW1.0 kmh SW 4.0 mph6.4 kmh 30.12 in1020.0 mb - 0.00 in0.0 mm 0.00 in0.0 mm
07:30 PM 66.6°F19.2°C 63.6°F17.6°C 90% 1.8 mph SSW2.9 kmh SSW 3.0 mph4.8 kmh 30.12 in1020.0 mb - 0.00 in0.0 mm 0.00 in0.0 mm
07:45 PM 66.6°F19.2°C 63.9°F17.7°C 91% 1.1 mph SW1.8 kmh SW 5.0 mph8.0 kmh 30.13 in1020.3 mb - 0.00 in0.0 mm 0.00 in0.0 mm
08:00 PM 66.6°F19.2°C 63.9°F17.7°C 91% 3.2 mph SW5.1 kmh SW 7.0 mph11.3 kmh 30.13 in1020.3 mb - 0.00 in0.0 mm 0.00 in0.0 mm
08:15 PM 66.6°F19.2°C 64.2°F17.9°C 92% 1.4 mph WSW2.3 kmh WSW 6.0 mph9.7 kmh 30.13 in1020.3 mb - 0.00 in0.0 mm 0.00 in0.0 mm
08:30 PM 66.5°F19.2°C 64.1°F17.8°C 92% 3.6 mph SW5.8 kmh SW 6.0 mph9.7 kmh 30.13 in1020.3 mb - 0.00 in0.0 mm 0.00 in0.0 mm
08:45 PM 66.5°F19.2°C 64.1°F17.8°C 92% Calm Calm 1.0 mph1.6 kmh 30.13 in1020.3 mb - 0.00 in0.0 mm 0.00 in0.0 mm
09:00 PM 66.5°F19.2°C 64.1°F17.8°C 92% 1.5 mph WSW2.4 kmh WSW 2.0 mph3.2 kmh 30.13 in1020.3 mb - 0.00 in0.0 mm 0.00 in0.0 mm
09:15 PM 66.4°F19.1°C 64.0°F17.8°C 92% 1.1 mph WSW1.8 kmh WSW 3.0 mph4.8 kmh 30.13 in1020.3 mb - 0.00 in0.0 mm 0.00 in0.0 mm
09:30 PM 66.4°F19.1°C 64.0°F17.8°C 92% Calm Calm 2.1 mph3.4 kmh 30.13 in1020.3 mb - 0.00 in0.0 mm 0.00 in0.0 mm
09:45 PM 66.4°F19.1°C 64.0°F17.8°C 92% 0.9 mph WSW1.4 kmh WSW 3.0 mph4.8 kmh 30.13 in1020.3 mb - 0.00 in0.0 mm 0.00 in0.0 mm
10:00 PM 66.4°F19.1°C 64.3°F17.9°C 93% 1.8 mph SW2.9 kmh SW 6.0 mph9.7 kmh 30.13 in1020.3 mb - 0.00 in0.0 mm 0.00 in0.0 mm
10:15 PM 66.4°F19.1°C 64.0°F17.8°C 92% 1.6 mph SW2.6 kmh SW 4.0 mph6.4 kmh 30.13 in1020.3 mb - 0.00 in0.0 mm 0.00 in0.0 mm
10:30 PM 66.4°F19.1°C 64.3°F17.9°C 93% 2.3 mph SW3.7 kmh SW 4.0 mph6.4 kmh 30.13 in1020.3 mb - 0.00 in0.0 mm 0.00 in0.0 mm
10:45 PM 66.3°F19.1°C 64.2°F17.9°C 93% 1.3 mph WSW2.1 kmh WSW 4.0 mph6.4 kmh 30.13 in1020.3 mb - 0.00 in0.0 mm 0.00 in0.0 mm
11:00 PM 66.3°F19.1°C 64.2°F17.9°C 93% 2.8 mph SW4.5 kmh SW 5.0 mph8.0 kmh 30.13 in1020.3 mb - 0.00 in0.0 mm 0.00 in0.0 mm
11:15 PM 66.1°F18.9°C 64.0°F17.8°C 93% 3.2 mph SW5.1 kmh SW 6.0 mph9.7 kmh 30.13 in1020.3 mb - 0.00 in0.0 mm 0.00 in0.0 mm
11:30 PM 66.1°F18.9°C 64.0°F17.8°C 93% 2.3 mph WSW3.7 kmh WSW 5.0 mph8.0 kmh 30.13 in1020.3 mb - 0.00 in0.0 mm 0.00 in0.0 mm
11:45 PM 66.0°F18.9°C 63.9°F17.7°C 93% 2.4 mph WSW3.9 kmh WSW 5.0 mph8.0 kmh 30.13 in1020.3 mb - 0.00 in0.0 mm 0.00 in0.0 mm